Bratsk, Russia
Current Conditions -  °F | °C
As of 2:30 PM on Wednesday 26 Nov 2014 (Local Time) from UIBB Reporting Station
Broken Clouds Broken Clouds  
Wind Chill: -13°   Ceiling: 20000
Heat Index:   Visibility: 6mi
Dew Point: -11°   Wind: 7mph
Humidity: 60%   Direction: 180°S
Pressure: 29.8"   Gusts: NA
Location:  56.3°N, 101.71°E
Report Text: UIBB 260630Z 18003MPS 9999 BKN200 M18/M24 Q1009 NOSIG RMKQFE714/0952 30490237
Loading
Personal Weather Stations






























Interactive Weather Map New forecast layout! Learn more

10-Day Weather Forecast

Advertisements
Track Severe Weather on mobile